INFORMACIÓN METAR y TAF
METAR FOR LEAS
ADDS - METARS form results

(1053 UTC 09 March 2021)
Data provider http://aviationweather.gov/metar/data/
 
METAR text: LEAS 091030Z 10005KT 060V160 9999 SCT018 SCT034 10/05 Q1024 NOSIG
Conditions at: LEAS (ASTURIAS/AVILES , ES) observed 1030 UTC 09 March 2021
Temperature: 10.0°C (50°F)
Dewpoint: 5.0°C (41°F) [RH = 71%]
Pressure (altimeter): 30.24 inches Hg (1024.0 mb)
Winds: from the E (100 degrees) at 6 MPH (5 knots; 2.6 m/s)
Visibility: 6 or more miles (10+ km)
Ceiling: at least 12,000 feet AGL
Clouds: scattered clouds at 1800 feet AGL
scattered clouds at 3400 feet AGL
Weather: no significant weather observed at this time

METAR text: LEAS 091000Z VRB02KT 9999 SCT032 BKN050 09/05 Q1024 NOSIG
Conditions at: LEAS (ASTURIAS/AVILES , ES) observed 1000 UTC 09 March 2021
Temperature: 9.0°C (48°F)
Dewpoint: 5.0°C (41°F) [RH = 76%]
Pressure (altimeter): 30.24 inches Hg (1024.0 mb)
Winds: variable direction winds at 2 MPH (2 knots; 1.0 m/s)
Visibility: 6 or more miles (10+ km)
Ceiling: 5000 feet AGL
Clouds: scattered clouds at 3200 feet AGL
broken clouds at 5000 feet AGL
Weather: no significant weather observed at this time

Forecast for: LEAS (ASTURIAS/AVILES , ES)
Text: TAF LEAS 090800Z 0909/1009 21005KT 9999 BKN030 TX10/0914Z TN06/1004Z
Forecast period: 0900 UTC 09 March 2021 to 0900 UTC 10 March 2021
Forecast type: FROM: standard forecast or significant change
Winds: from the SSW (210 degrees) at 6 MPH (5 knots; 2.6 m/s)
Visibility: 6 or more miles (10+ km)
Ceiling: 3000 feet AGL
Clouds: broken clouds at 3000 feet AGL
Weather: no significant weather forecast for this period
Text: TEMPO 0911/0919 05010KT
Forecast period: 1100 to 1900 UTC 09 March 2021
Forecast type: TEMPORARY: The following changes expected for less than half the time period
Winds: from the NE (50 degrees) at 12 MPH (10 knots; 5.1 m/s)
Visibility: missing
Ceiling: unknown
Clouds: missing
Weather: no significant weather forecast for this period

 MAPA DE AEROPUERTO

 INFORMACIÓN DE PISTA
Pista 11 Longitud 7218 ft Ancho 148 ft
Elevación 399 ft Umbral desplazado 0 ft Rumbo de pista 109
Pista 29 Longitud 7218 ft Ancho 148 ft
Elevación 399 ft Umbral desplazado 0 ft Rumbo de pista 289

 FRECUANCIAS DEL AEROPUERTO
Tipo APP Nombre APP Frecuencia 118.15 MHZ
Tipo GND Nombre GND Frecuencia 121.7 MHZ
Tipo TWR Nombre TWR Frecuencia 118.15 MHZ

 RADIO AYUDAS DEL AEROPUERTO
Tipo NDB Nombre Asturias Frecuencia 325 KHZ
Tipo NDB Nombre Asturias Frecuencia 387 KHZ
Tipo VOR-DME Nombre Asturias Frecuencia 112400 KHZ



Powered by Virtual Airlines Manager [v2.6.2]